Time;durP1;ratioP1;P1;durP2;ratioP2;P2;SDS_P1;SDS_P2;PMS_P1;PMS_P2;Temp;Humidity;BMP_temperature;BMP_pressure;BME280_temperature;BME280_humidity;BME280_pressure;Samples;Min_cycle;Max_cycle;Signal;HPM_P1;HPM_P2
2022/12/20 00:01:42;;;;;;;12.15;7.07;;;9.00;99.90;;;;;;5112794;28;20237;-83
2022/12/20 00:04:11;;;;;;;7.80;7.00;;;9.00;99.90;;;;;;5105677;28;20310;-84
2022/12/20 00:06:40;;;;;;;7.13;6.40;;;9.10;99.90;;;;;;5111282;28;20190;-83
2022/12/20 00:09:10;;;;;;;12.77;8.65;;;9.10;99.90;;;;;;5111303;28;20198;-85
2022/12/20 00:11:40;;;;;;;9.50;6.93;;;9.10;99.90;;;;;;5107387;28;20278;-84
2022/12/20 00:14:07;;;;;;;10.82;7.10;;;9.00;99.90;;;;;;5103576;28;20290;-84
2022/12/20 00:16:35;;;;;;;10.20;8.30;;;9.10;99.90;;;;;;5112309;28;20258;-83
2022/12/20 00:19:05;;;;;;;9.23;7.13;;;9.10;99.90;;;;;;5117096;28;20214;-80
2022/12/20 00:21:33;;;;;;;8.95;6.75;;;9.20;99.90;;;;;;5112758;28;20254;-84
2022/12/20 00:24:00;;;;;;;7.80;6.13;;;9.20;99.90;;;;;;5104468;28;20258;-84
2022/12/20 00:26:30;;;;;;;9.80;7.03;;;9.30;99.90;;;;;;5105755;28;20330;-85
2022/12/20 00:28:58;;;;;;;8.82;6.60;;;9.30;99.90;;;;;;5105958;28;20194;-83
2022/12/20 00:31:27;;;;;;;8.55;6.57;;;9.30;99.90;;;;;;5106423;28;20206;-82
2022/12/20 00:33:55;;;;;;;6.45;5.85;;;9.40;99.90;;;;;;5106602;28;20182;-83
2022/12/20 00:36:24;;;;;;;10.55;7.60;;;9.40;99.90;;;;;;5101108;28;20228;-83
2022/12/20 00:38:53;;;;;;;8.38;6.72;;;9.40;99.90;;;;;;5097631;28;20339;-81
2022/12/20 00:41:21;;;;;;;8.38;7.53;;;9.50;99.90;;;;;;5100119;28;20194;-82
2022/12/20 00:43:50;;;;;;;7.78;6.68;;;9.40;99.90;;;;;;5104995;28;20195;-83
2022/12/20 00:46:18;;;;;;;7.28;5.70;;;9.40;99.90;;;;;;5105042;28;20202;-84
2022/12/20 00:48:45;;;;;;;10.45;6.40;;;9.30;99.90;;;;;;5116239;28;20183;-80
2022/12/20 00:51:15;;;;;;;11.00;6.88;;;9.30;99.90;;;;;;5117383;28;20207;-81
2022/12/20 00:53:43;;;;;;;12.40;6.47;;;9.30;99.90;;;;;;5110324;28;20259;-81
2022/12/20 00:56:11;;;;;;;6.18;5.55;;;9.30;99.90;;;;;;5112784;28;20229;-79
2022/12/20 00:58:41;;;;;;;8.68;6.05;;;9.40;99.90;;;;;;5116058;28;20197;-81
2022/12/20 01:01:18;;;;;;;11.13;7.47;;;9.40;99.90;;;;;;5115280;28;20233;-80
2022/12/20 01:03:45;;;;;;;7.00;6.22;;;9.50;99.90;;;;;;5112276;28;20220;-85
2022/12/20 01:06:12;;;;;;;7.15;5.95;;;9.60;99.90;;;;;;5107595;28;20227;-83
2022/12/20 01:08:39;;;;;;;7.03;6.28;;;9.70;99.90;;;;;;5107422;28;20293;-82
2022/12/20 01:11:09;;;;;;;12.05;6.70;;;9.70;99.90;;;;;;5116464;28;20212;-79
2022/12/20 01:13:39;;;;;;;12.43;8.25;;;9.80;99.90;;;;;;5117826;28;20231;-80
2022/12/20 01:16:07;;;;;;;10.82;6.03;;;9.70;99.90;;;;;;5117942;28;20216;-79
2022/12/20 01:18:36;;;;;;;6.85;6.25;;;9.70;99.90;;;;;;5114012;28;20189;-80
2022/12/20 01:21:03;;;;;;;6.38;5.75;;;9.70;99.90;;;;;;5113772;28;20223;-80
2022/12/20 01:23:30;;;;;;;12.23;6.47;;;9.70;99.90;;;;;;5118085;28;20217;-80
2022/12/20 01:25:59;;;;;;;7.30;6.60;;;9.70;99.90;;;;;;5110880;28;20224;-80
2022/12/20 01:28:26;;;;;;;6.22;5.60;;;9.70;99.90;;;;;;5115800;28;20194;-79
2022/12/20 01:30:53;;;;;;;7.88;6.10;;;9.80;99.90;;;;;;5117241;28;20202;-80
2022/12/20 01:33:20;;;;;;;7.20;5.93;;;9.90;99.90;;;;;;5117656;28;20241;-80
2022/12/20 01:35:57;;;;;;;8.25;5.68;;;10.00;99.90;;;;;;5114971;28;20225;-79
2022/12/20 01:38:24;;;;;;;6.32;5.72;;;10.10;99.90;;;;;;5112236;28;20186;-79
2022/12/20 01:40:51;;;;;;;7.97;6.40;;;10.00;99.90;;;;;;5117106;28;20256;-79
2022/12/20 01:43:19;;;;;;;7.68;6.78;;;10.00;99.90;;;;;;5117822;28;20195;-79
2022/12/20 01:45:46;;;;;;;8.15;6.10;;;10.10;99.90;;;;;;5109709;28;20226;-80
2022/12/20 01:48:16;;;;;;;9.93;6.57;;;10.20;99.90;;;;;;5117537;28;20205;-80
2022/12/20 01:50:43;;;;;;;9.13;6.85;;;10.20;99.90;;;;;;5114863;28;20191;-79
2022/12/20 01:53:11;;;;;;;6.35;5.80;;;10.20;99.90;;;;;;5117207;28;20222;-79
2022/12/20 01:55:38;;;;;;;7.47;5.45;;;10.30;99.90;;;;;;5117539;28;20251;-80
2022/12/20 01:58:10;;;;;;;8.75;6.72;;;10.30;99.90;;;;;;5114152;28;20191;-80
2022/12/20 02:00:37;;;;;;;8.50;6.30;;;10.30;99.90;;;;;;5117086;28;20183;-79
2022/12/20 02:03:07;;;;;;;8.27;5.70;;;10.30;99.90;;;;;;5106585;28;20202;-82
2022/12/20 02:05:36;;;;;;;9.65;6.80;;;10.20;99.90;;;;;;5110703;28;20299;-80
2022/12/20 02:08:04;;;;;;;7.63;6.45;;;10.10;99.90;;;;;;5114165;28;20268;-82
2022/12/20 02:10:44;;;;;;;7.32;5.85;;;10.10;99.90;;;;;;5111253;28;20248;-83
2022/12/20 02:13:20;;;;;;;14.23;7.05;;;10.10;99.90;;;;;;5107289;28;20249;-84
2022/12/20 02:15:54;;;;;;;6.93;6.22;;;10.10;99.90;;;;;;5100383;28;20228;-84
2022/12/20 02:18:23;;;;;;;7.00;5.63;;;10.10;99.90;;;;;;5103269;28;20242;-83
2022/12/20 02:21:08;;;;;;;8.85;6.15;;;10.10;99.90;;;;;;5109259;28;20234;-82
2022/12/20 02:24:15;;;;;;;7.32;4.95;;;10.20;99.90;;;;;;5113504;28;20223;-84
2022/12/20 02:27:23;;;;;;;6.13;5.55;;;10.20;99.90;;;;;;5114236;28;20236;-81
2022/12/20 02:30:09;;;;;;;7.13;5.82;;;10.20;99.90;;;;;;5097841;28;20205;-83
2022/12/20 02:32:41;;;;;;;12.00;6.93;;;10.10;99.90;;;;;;5096794;28;20226;-82
2022/12/20 02:35:10;;;;;;;9.20;6.15;;;10.00;99.90;;;;;;5096503;28;20221;-83
2022/12/20 02:37:37;;;;;;;9.88;6.30;;;10.10;99.90;;;;;;5101456;28;20207;-82
2022/12/20 02:40:06;;;;;;;8.43;6.00;;;10.10;99.90;;;;;;5100552;28;20263;-84
2022/12/20 02:42:33;;;;;;;9.95;9.05;;;10.00;99.90;;;;;;5105154;28;20277;-83
2022/12/20 02:45:16;;;;;;;6.13;5.43;;;10.00;99.90;;;;;;5115558;28;20223;-83
2022/12/20 02:47:49;;;;;;;8.55;5.43;;;10.10;99.90;;;;;;5106943;28;20261;-85
2022/12/20 02:50:20;;;;;;;6.07;5.40;;;10.10;99.90;;;;;;5108219;28;20253;-84
2022/12/20 02:52:47;;;;;;;8.45;6.95;;;10.00;99.90;;;;;;5101493;28;20219;-84
2022/12/20 02:55:14;;;;;;;7.03;5.38;;;10.10;99.90;;;;;;5108067;28;20242;-84
2022/12/20 02:57:47;;;;;;;5.80;4.75;;;10.10;99.90;;;;;;5107042;28;20262;-82
2022/12/20 03:00:18;;;;;;;6.97;5.88;;;10.10;99.90;;;;;;5098464;28;20200;-84
2022/12/20 03:05:35;;;;;;;8.30;6.38;;;10.10;99.90;;;;;;5106230;28;20260;-82
2022/12/20 03:08:02;;;;;;;7.00;5.18;;;10.20;99.90;;;;;;5111328;28;20206;-84
2022/12/20 03:10:29;;;;;;;7.38;5.53;;;10.10;99.90;;;;;;5107502;28;20255;-80
2022/12/20 03:12:56;;;;;;;7.88;6.00;;;10.00;99.90;;;;;;5105293;28;20226;-82
2022/12/20 03:15:23;;;;;;;7.15;5.15;;;10.00;99.90;;;;;;5108196;28;20222;-83
2022/12/20 03:17:51;;;;;;;5.63;5.00;;;10.20;99.90;;;;;;5108636;28;20218;-83
2022/12/20 03:20:18;;;;;;;10.43;7.05;;;10.20;99.90;;;;;;5105490;28;20258;-83
2022/12/20 03:22:45;;;;;;;7.90;6.38;;;10.20;99.90;;;;;;5110623;28;20201;-83
2022/12/20 03:25:12;;;;;;;6.50;5.85;;;10.30;99.90;;;;;;5112230;28;20221;-82
2022/12/20 03:27:39;;;;;;;9.07;5.68;;;10.20;99.90;;;;;;5111596;28;20220;-82
2022/12/20 03:30:06;;;;;;;6.75;6.00;;;10.30;99.90;;;;;;5108880;28;20660;-83
2022/12/20 03:32:33;;;;;;;5.80;5.20;;;10.30;99.90;;;;;;5110896;28;20254;-80
2022/12/20 03:35:02;;;;;;;5.80;4.90;;;10.40;99.90;;;;;;5107438;28;20279;-84
2022/12/20 03:37:29;;;;;;;5.43;4.05;;;10.40;99.90;;;;;;5101747;28;20739;-82
2022/12/20 03:39:56;;;;;;;8.75;5.20;;;10.40;99.90;;;;;;5110576;28;20199;-83
2022/12/20 03:42:23;;;;;;;7.75;6.13;;;10.40;99.90;;;;;;5104178;28;20224;-82
2022/12/20 03:44:49;;;;;;;9.50;5.65;;;10.50;99.90;;;;;;5109279;28;20697;-82
2022/12/20 03:47:16;;;;;;;11.02;5.93;;;10.50;99.90;;;;;;5111321;28;20722;-83
2022/12/20 03:49:43;;;;;;;5.10;4.00;;;10.30;99.90;;;;;;5108105;28;20204;-82
2022/12/20 03:52:12;;;;;;;5.90;4.57;;;10.40;99.90;;;;;;5105586;28;20215;-82
2022/12/20 03:54:39;;;;;;;8.73;5.72;;;10.40;99.90;;;;;;5106113;28;20613;-83
2022/12/20 03:57:06;;;;;;;7.15;5.28;;;10.40;99.90;;;;;;5116290;28;20299;-82
2022/12/20 03:59:34;;;;;;;6.57;4.70;;;10.40;99.90;;;;;;5101047;28;20200;-82
2022/12/20 04:02:01;;;;;;;6.50;4.82;;;10.40;99.90;;;;;;5115473;28;20234;-83
2022/12/20 04:04:29;;;;;;;5.57;5.05;;;10.50;99.90;;;;;;5113771;28;20211;-84
2022/12/20 04:06:56;;;;;;;9.18;5.20;;;10.50;99.90;;;;;;5115656;28;20677;-83
2022/12/20 04:09:24;;;;;;;10.27;4.75;;;10.70;99.90;;;;;;5111808;28;20293;-84
2022/12/20 04:11:51;;;;;;;7.07;5.68;;;10.50;99.90;;;;;;5111212;28;20247;-85
2022/12/20 04:14:17;;;;;;;6.03;4.65;;;10.50;99.90;;;;;;5111684;28;20229;-82
2022/12/20 04:16:45;;;;;;;6.15;4.65;;;10.50;99.90;;;;;;5110380;28;20643;-81
2022/12/20 04:19:11;;;;;;;7.10;4.85;;;10.50;99.90;;;;;;5111380;28;20201;-81
2022/12/20 04:21:38;;;;;;;4.32;3.92;;;10.60;99.90;;;;;;5111202;28;20233;-82
2022/12/20 04:24:06;;;;;;;8.77;5.22;;;10.60;99.90;;;;;;5111692;28;20256;-82
2022/12/20 04:26:35;;;;;;;5.90;4.90;;;10.60;99.90;;;;;;5110865;28;20329;-81
2022/12/20 04:29:02;;;;;;;6.20;4.75;;;10.60;99.90;;;;;;5110942;28;20200;-81
2022/12/20 04:31:28;;;;;;;7.47;5.32;;;10.60;99.90;;;;;;5110757;28;20204;-83
2022/12/20 04:33:55;;;;;;;9.10;4.90;;;10.60;99.90;;;;;;5110883;28;20284;-82
2022/12/20 04:36:22;;;;;;;5.28;4.68;;;10.60;99.90;;;;;;5111733;28;20242;-84
2022/12/20 04:38:49;;;;;;;7.45;4.88;;;10.60;99.90;;;;;;5111068;28;20327;-82
2022/12/20 04:41:21;;;;;;;7.63;4.85;;;10.70;99.90;;;;;;5113497;28;20193;-83
2022/12/20 04:43:51;;;;;;;10.18;5.25;;;10.60;99.90;;;;;;5115456;28;20298;-84
2022/12/20 04:46:18;;;;;;;6.82;5.22;;;10.60;99.90;;;;;;5115350;28;20188;-83
2022/12/20 04:48:46;;;;;;;5.95;4.13;;;10.60;99.90;;;;;;5105778;28;20204;-82
2022/12/20 04:51:13;;;;;;;5.30;4.80;;;10.60;99.90;;;;;;5110397;28;20194;-81
2022/12/20 04:53:47;;;;;;;7.28;4.80;;;10.60;99.90;;;;;;5109732;28;20235;-83
2022/12/20 04:56:17;;;;;;;5.72;4.28;;;10.60;99.90;;;;;;5101785;28;20197;-83
2022/12/20 04:58:44;;;;;;;10.18;4.32;;;10.50;99.90;;;;;;5111842;28;20226;-84
2022/12/20 05:01:12;;;;;;;4.82;4.35;;;10.50;99.90;;;;;;5112982;28;20234;-82
2022/12/20 05:03:39;;;;;;;4.78;4.32;;;10.40;99.90;;;;;;5108453;28;20203;-83
2022/12/20 05:06:07;;;;;;;7.95;4.45;;;10.50;99.90;;;;;;5108509;28;20252;-83
2022/12/20 05:08:35;;;;;;;6.68;4.90;;;10.60;99.90;;;;;;5108676;28;20239;-83
2022/12/20 05:11:02;;;;;;;4.88;4.32;;;10.50;99.90;;;;;;5107984;28;20229;-82
2022/12/20 05:13:29;;;;;;;7.50;5.05;;;10.70;99.90;;;;;;5096339;28;20288;-82
2022/12/20 05:15:57;;;;;;;5.80;5.20;;;10.70;99.90;;;;;;5105568;28;20215;-83
2022/12/20 05:18:28;;;;;;;5.47;4.97;;;10.70;99.90;;;;;;5102711;28;20206;-84
2022/12/20 05:26:26;;;;;;;5.00;4.50;;;10.70;99.90;;;;;;5107117;28;20210;-84
2022/12/20 05:28:53;;;;;;;5.82;5.22;;;10.70;99.90;;;;;;5108046;28;20204;-83
2022/12/20 05:31:20;;;;;;;9.23;5.25;;;10.70;99.90;;;;;;5111437;28;20261;-82
2022/12/20 05:33:48;;;;;;;5.82;4.72;;;10.70;99.90;;;;;;5109900;28;20599;-82
2022/12/20 05:36:15;;;;;;;5.03;4.53;;;10.70;99.90;;;;;;5101721;28;20282;-84
2022/12/20 05:38:42;;;;;;;6.65;5.60;;;10.70;99.90;;;;;;5096061;28;20269;-83
2022/12/20 05:41:09;;;;;;;9.98;5.18;;;10.70;99.90;;;;;;5105623;28;20225;-81
2022/12/20 05:43:36;;;;;;;5.57;4.57;;;10.80;99.90;;;;;;5104432;28;20267;-84
2022/12/20 05:46:03;;;;;;;5.63;4.72;;;10.70;99.90;;;;;;5105314;28;20278;-81
2022/12/20 05:48:30;;;;;;;5.47;4.97;;;10.80;99.90;;;;;;5105713;28;20199;-83
2022/12/20 05:50:58;;;;;;;4.97;4.55;;;10.70;99.90;;;;;;5102400;28;20284;-84
2022/12/20 05:53:26;;;;;;;8.07;6.10;;;10.60;99.90;;;;;;5097148;28;20232;-82
2022/12/20 05:55:54;;;;;;;7.47;5.60;;;10.60;99.90;;;;;;5105544;28;20254;-84
2022/12/20 05:58:21;;;;;;;6.10;4.88;;;10.60;99.90;;;;;;5100990;28;20209;-84
2022/12/20 06:00:48;;;;;;;6.13;5.53;;;10.60;99.90;;;;;;5100400;28;20230;-82
2022/12/20 06:03:15;;;;;;;6.88;5.93;;;10.50;99.90;;;;;;5096195;28;20204;-84
2022/12/20 06:05:43;;;;;;;9.25;5.60;;;10.40;99.90;;;;;;5106630;28;20247;-80
2022/12/20 06:08:13;;;;;;;6.20;5.05;;;10.40;99.90;;;;;;5106687;28;20203;-82
2022/12/20 06:10:41;;;;;;;7.30;6.50;;;10.40;99.90;;;;;;5108301;28;20227;-83
2022/12/20 06:13:09;;;;;;;6.22;5.63;;;10.50;99.90;;;;;;5104720;28;20207;-82
2022/12/20 06:15:37;;;;;;;7.25;6.53;;;10.50;99.90;;;;;;5103291;28;20301;-84
2022/12/20 06:18:04;;;;;;;6.95;6.28;;;10.40;99.90;;;;;;5098261;28;20219;-82
2022/12/20 06:20:31;;;;;;;7.97;7.15;;;10.40;99.90;;;;;;5104504;28;20264;-84
2022/12/20 06:22:58;;;;;;;6.65;5.90;;;10.40;99.90;;;;;;5104814;28;20213;-80
2022/12/20 06:25:27;;;;;;;7.68;6.88;;;10.40;99.90;;;;;;5105015;28;20256;-84
2022/12/20 06:27:53;;;;;;;9.57;6.43;;;10.40;99.90;;;;;;5106106;28;20200;-83
2022/12/20 06:30:20;;;;;;;7.00;6.18;;;10.40;99.90;;;;;;5106180;28;20610;-83
2022/12/20 06:32:47;;;;;;;9.98;5.95;;;10.40;99.90;;;;;;5106993;28;20634;-84
2022/12/20 06:35:14;;;;;;;7.93;7.03;;;10.50;99.90;;;;;;5104731;28;20230;-83
2022/12/20 06:37:41;;;;;;;6.80;6.13;;;10.50;99.90;;;;;;5099699;28;20271;-80
2022/12/20 06:40:09;;;;;;;7.75;6.95;;;10.50;99.90;;;;;;5102316;28;20196;-83
2022/12/20 06:42:38;;;;;;;10.90;7.03;;;10.50;99.90;;;;;;5101524;28;20209;-84
2022/12/20 06:45:05;;;;;;;6.88;6.00;;;10.50;99.90;;;;;;5096242;28;20223;-84
2022/12/20 06:47:32;;;;;;;9.35;5.63;;;10.50;99.90;;;;;;5104529;28;20234;-84
2022/12/20 06:49:59;;;;;;;9.00;6.47;;;10.50;99.90;;;;;;5104232;28;20842;-83
2022/12/20 06:52:26;;;;;;;6.75;5.50;;;10.50;99.90;;;;;;5104740;28;20292;-84
2022/12/20 06:54:53;;;;;;;7.30;5.75;;;10.40;99.90;;;;;;5104784;28;20401;-84
2022/12/20 06:57:20;;;;;;;9.98;6.35;;;10.40;99.90;;;;;;5101907;28;20289;-82
2022/12/20 06:59:48;;;;;;;8.48;5.80;;;10.40;99.90;;;;;;5105056;28;20464;-82
2022/12/20 07:02:15;;;;;;;8.15;6.25;;;10.40;99.90;;;;;;5095538;28;20196;-82
2022/12/20 07:04:42;;;;;;;9.90;6.70;;;10.40;99.90;;;;;;5104534;28;20293;-84
2022/12/20 07:07:09;;;;;;;5.60;5.07;;;10.40;99.90;;;;;;5100976;28;20286;-83
2022/12/20 07:09:36;;;;;;;8.73;6.70;;;10.40;99.90;;;;;;5093156;28;20846;-82
2022/12/20 07:12:04;;;;;;;6.18;5.57;;;10.40;99.90;;;;;;5104864;28;20203;-83
2022/12/20 07:14:30;;;;;;;7.55;5.88;;;10.50;99.90;;;;;;5103625;28;20227;-83
2022/12/20 07:16:59;;;;;;;6.28;5.10;;;10.50;99.90;;;;;;5103866;28;20233;-83
2022/12/20 07:19:26;;;;;;;7.60;5.72;;;10.40;99.90;;;;;;5106085;28;20368;-82
2022/12/20 07:21:53;;;;;;;8.63;5.20;;;10.50;99.90;;;;;;5109717;28;20232;-84
2022/12/20 07:24:20;;;;;;;7.15;5.80;;;10.60;99.90;;;;;;5111834;28;20215;-83
2022/12/20 07:26:47;;;;;;;8.68;5.50;;;10.70;99.90;;;;;;5112316;28;20238;-81
2022/12/20 07:29:14;;;;;;;6.00;5.47;;;10.70;99.90;;;;;;5108787;28;20260;-84
2022/12/20 07:31:41;;;;;;;6.82;5.65;;;10.50;99.90;;;;;;5107868;28;20243;-80
2022/12/20 07:34:09;;;;;;;7.80;5.30;;;10.60;99.90;;;;;;5108394;28;20219;-84
2022/12/20 07:36:36;;;;;;;6.90;5.63;;;10.60;99.90;;;;;;5113079;28;20260;-82
2022/12/20 07:39:03;;;;;;;8.82;5.43;;;10.60;99.90;;;;;;5114678;28;20200;-82
2022/12/20 07:41:30;;;;;;;6.20;4.53;;;10.60;99.90;;;;;;5116540;28;20262;-81
2022/12/20 07:43:58;;;;;;;7.43;4.65;;;10.80;99.90;;;;;;5113523;28;20233;-80
2022/12/20 07:46:25;;;;;;;5.53;4.70;;;10.60;99.90;;;;;;5115130;28;20195;-80
2022/12/20 07:48:52;;;;;;;7.28;4.20;;;10.70;99.90;;;;;;5108419;28;20193;-83
2022/12/20 07:51:24;;;;;;;9.85;5.40;;;10.70;99.90;;;;;;5108819;28;20200;-84
2022/12/20 07:53:59;;;;;;;7.90;6.20;;;10.80;99.90;;;;;;5101518;28;20220;-82
2022/12/20 07:56:27;;;;;;;6.05;5.30;;;10.90;99.90;;;;;;5101431;28;20727;-84
2022/12/20 07:58:57;;;;;;;7.43;5.25;;;10.80;99.90;;;;;;5106875;28;20203;-84
2022/12/20 08:01:25;;;;;;;6.60;4.85;;;10.80;99.90;;;;;;5108039;28;20222;-81
2022/12/20 08:03:57;;;;;;;5.90;4.97;;;10.80;99.90;;;;;;5106950;28;20229;-82
2022/12/20 08:06:25;;;;;;;5.63;4.70;;;10.90;99.90;;;;;;5104026;28;20192;-82
2022/12/20 08:08:57;;;;;;;8.23;5.32;;;10.90;99.90;;;;;;5115361;28;20193;-83
2022/12/20 08:11:26;;;;;;;7.28;5.18;;;11.00;99.90;;;;;;5113395;28;20241;-84
2022/12/20 08:13:53;;;;;;;7.30;5.45;;;10.90;99.90;;;;;;5113772;28;20209;-81
2022/12/20 08:16:20;;;;;;;5.82;5.22;;;10.90;99.90;;;;;;5109372;28;20197;-83
2022/12/20 08:18:47;;;;;;;6.60;5.35;;;10.90;99.90;;;;;;5103081;28;20209;-81
2022/12/20 08:21:13;;;;;;;6.47;5.03;;;11.00;99.90;;;;;;5109025;28;20193;-82
2022/12/20 08:23:42;;;;;;;6.30;5.70;;;11.00;99.90;;;;;;5105048;28;20201;-84
2022/12/20 08:26:09;;;;;;;5.40;4.85;;;11.00;99.90;;;;;;5109654;28;20251;-82
2022/12/20 08:28:35;;;;;;;6.07;5.47;;;11.00;99.90;;;;;;5107222;28;20229;-84
2022/12/20 08:31:03;;;;;;;6.53;4.95;;;11.30;99.90;;;;;;5092674;28;20236;-82
2022/12/20 08:33:32;;;;;;;10.10;5.40;;;11.10;99.90;;;;;;5106795;28;20260;-81
2022/12/20 08:35:59;;;;;;;9.82;6.18;;;11.20;99.90;;;;;;5107237;28;20218;-82
2022/12/20 08:38:27;;;;;;;6.07;5.07;;;11.20;99.90;;;;;;5106760;28;20696;-83
2022/12/20 08:40:55;;;;;;;6.50;5.88;;;11.20;99.90;;;;;;5107892;28;20202;-80
2022/12/20 08:43:23;;;;;;;6.07;5.35;;;11.20;99.90;;;;;;5111733;28;20225;-82
2022/12/20 08:45:53;;;;;;;6.85;6.13;;;11.30;99.90;;;;;;5113544;28;20219;-82
2022/12/20 08:48:21;;;;;;;7.15;6.05;;;11.30;99.90;;;;;;5113355;28;20233;-82
2022/12/20 08:50:53;;;;;;;5.47;4.75;;;11.40;99.90;;;;;;5107902;28;20212;-81
2022/12/20 08:53:20;;;;;;;5.45;4.93;;;11.50;99.90;;;;;;5102077;28;20282;-85
2022/12/20 08:55:47;;;;;;;9.15;5.20;;;11.60;99.90;;;;;;5112463;28;20297;-82
2022/12/20 08:58:15;;;;;;;5.88;4.57;;;11.50;99.90;;;;;;5117489;28;20196;-82
2022/12/20 09:00:42;;;;;;;5.78;4.57;;;11.50;99.90;;;;;;5112390;28;20261;-81
2022/12/20 09:03:10;;;;;;;5.95;4.88;;;11.70;99.90;;;;;;5117626;28;20306;-82
2022/12/20 09:05:43;;;;;;;7.55;4.68;;;11.60;99.90;;;;;;5145827;22;20236;-82
2022/12/20 09:08:10;;;;;;;7.45;4.80;;;11.60;99.90;;;;;;5104445;28;20209;-86
2022/12/20 09:10:39;;;;;;;6.38;5.78;;;11.60;99.90;;;;;;5105537;28;20307;-85
2022/12/20 09:13:06;;;;;;;7.55;5.18;;;11.50;99.90;;;;;;5108464;28;20190;-82
2022/12/20 09:15:35;;;;;;;8.43;5.10;;;11.50;99.90;;;;;;5112535;28;20255;-84
2022/12/20 09:18:03;;;;;;;6.53;4.85;;;11.70;99.90;;;;;;5110496;28;20229;-83
2022/12/20 09:20:30;;;;;;;6.03;4.70;;;11.70;99.90;;;;;;5113452;28;20200;-82
2022/12/20 09:22:58;;;;;;;7.00;4.78;;;11.70;99.90;;;;;;5114559;28;20229;-83
2022/12/20 09:25:25;;;;;;;5.90;5.15;;;11.80;99.90;;;;;;5114242;28;20285;-84
2022/12/20 09:27:54;;;;;;;7.25;4.72;;;11.90;99.90;;;;;;5114662;28;20198;-84
2022/12/20 09:30:21;;;;;;;6.55;5.85;;;12.00;99.90;;;;;;5111745;28;20205;-83
2022/12/20 09:32:49;;;;;;;11.60;4.55;;;12.10;99.90;;;;;;5111897;28;20226;-84
2022/12/20 09:35:16;;;;;;;5.85;4.30;;;12.00;99.90;;;;;;5109212;28;20212;-81
2022/12/20 09:37:43;;;;;;;6.82;4.75;;;12.10;99.90;;;;;;5111037;28;20228;-84
2022/12/20 09:40:17;;;;;;;6.45;5.38;;;12.20;99.90;;;;;;5107611;28;20209;-87
2022/12/20 09:42:44;;;;;;;7.88;5.72;;;12.10;99.90;;;;;;5112836;28;20284;-85
2022/12/20 09:45:21;;;;;;;7.03;5.00;;;12.00;99.90;;;;;;5108381;28;20261;-84
2022/12/20 09:47:51;;;;;;;7.57;4.88;;;12.20;99.90;;;;;;5106696;28;20261;-86
2022/12/20 09:50:20;;;;;;;8.75;5.00;;;12.00;99.90;;;;;;5108365;28;20210;-84
2022/12/20 09:53:02;;;;;;;8.20;5.32;;;12.00;99.90;;;;;;5117224;28;20201;-84
2022/12/20 09:55:35;;;;;;;4.65;4.07;;;12.00;99.90;;;;;;5111391;28;20244;-83
2022/12/20 09:58:21;;;;;;;5.28;4.78;;;12.10;99.90;;;;;;5115833;28;20250;-83
2022/12/20 10:00:49;;;;;;;9.45;4.53;;;12.10;99.90;;;;;;5098357;28;20265;-85
2022/12/20 10:03:22;;;;;;;6.80;3.85;;;12.10;99.90;;;;;;5110368;28;20217;-83
2022/12/20 10:05:52;;;;;;;8.40;4.60;;;12.10;99.90;;;;;;5116113;28;20269;-83
2022/12/20 10:08:37;;;;;;;6.90;6.07;;;12.10;99.90;;;;;;5117504;28;20424;-82
2022/12/20 10:11:11;;;;;;;5.72;5.13;;;12.20;99.90;;;;;;5116771;28;20213;-83
2022/12/20 10:13:54;;;;;;;7.70;5.45;;;12.10;99.90;;;;;;5116191;28;20192;-82
2022/12/20 10:16:35;;;;;;;6.72;4.97;;;12.10;99.90;;;;;;5116859;28;20205;-81
2022/12/20 10:19:19;;;;;;;5.97;4.50;;;12.20;99.90;;;;;;5113682;28;20198;-83
2022/12/20 10:21:52;;;;;;;4.47;4.07;;;12.20;99.90;;;;;;5123175;28;20210;-80
2022/12/20 10:24:27;;;;;;;6.07;4.90;;;12.20;99.90;;;;;;5116094;28;20201;-81
2022/12/20 10:26:54;;;;;;;7.65;4.82;;;12.30;99.90;;;;;;5127111;28;20172;-81
2022/12/20 10:29:21;;;;;;;5.40;4.43;;;12.30;99.90;;;;;;5115014;28;20178;-80
2022/12/20 10:35:27;;;;;;;6.80;4.75;;;12.10;99.90;;;;;;5067818;28;20239;-80
2022/12/20 10:38:11;;;;;;;4.28;3.72;;;12.30;99.90;;;;;;5102642;28;20208;-81
2022/12/20 10:41:14;;;;;;;;;;;;;;;;;;;;;
2022/12/20 10:46:19;;;;;;;10.13;5.65;;;12.60;99.90;;;;;;5133214;22;20322;-69
2022/12/20 10:48:47;;;;;;;6.47;5.00;;;12.50;99.90;;;;;;5131341;28;20288;-68
2022/12/20 10:51:18;;;;;;;5.18;4.68;;;12.50;99.90;;;;;;5123211;28;20221;-70
2022/12/20 10:53:54;;;;;;;5.63;4.10;;;12.50;99.90;;;;;;5133036;27;20617;-70
2022/12/20 10:56:23;;;;;;;5.60;4.63;;;12.50;99.90;;;;;;5136591;27;20216;-69
2022/12/20 10:58:56;;;;;;;5.22;4.28;;;12.50;99.90;;;;;;5137156;27;20191;-69
2022/12/20 11:01:28;;;;;;;5.18;4.53;;;12.50;99.90;;;;;;5135934;27;20196;-68
2022/12/20 11:03:58;;;;;;;5.70;4.57;;;12.60;99.90;;;;;;5136112;27;20288;-72
2022/12/20 11:06:30;;;;;;;7.15;5.30;;;12.60;99.90;;;;;;5137037;27;20594;-69
2022/12/20 11:09:22;;;;;;;7.53;4.50;;;12.60;99.90;;;;;;5136220;27;20620;-67
2022/12/20 11:12:04;;;;;;;5.90;4.53;;;12.60;99.90;;;;;;5122799;27;20545;-68
2022/12/20 11:14:33;;;;;;;7.50;6.80;;;12.60;99.90;;;;;;5131672;27;20192;-70
2022/12/20 11:17:13;;;;;;;7.70;5.10;;;12.70;99.90;;;;;;5128523;27;20601;-71
2022/12/20 11:20:06;;;;;;;5.65;4.85;;;12.80;99.90;;;;;;5131483;27;20217;-68
2022/12/20 11:22:45;;;;;;;4.90;3.55;;;12.80;99.90;;;;;;5114987;27;20585;-70
2022/12/20 11:25:30;;;;;;;5.22;3.75;;;12.80;99.90;;;;;;5130036;27;20292;-68
2022/12/20 11:28:28;;;;;;;7.22;4.38;;;12.70;99.90;;;;;;5134940;27;20301;-71
2022/12/20 11:31:05;;;;;;;5.32;3.85;;;12.70;99.90;;;;;;5135033;27;20597;-67
2022/12/20 11:33:52;;;;;;;5.18;4.70;;;12.60;99.90;;;;;;5134532;27;20203;-70
2022/12/20 11:36:26;;;;;;;4.53;3.90;;;12.60;99.90;;;;;;5135086;27;20221;-71
2022/12/20 11:39:05;;;;;;;10.95;4.63;;;12.40;99.90;;;;;;5135560;27;20565;-69
2022/12/20 11:41:42;;;;;;;6.95;4.60;;;12.40;99.90;;;;;;5130948;27;20530;-72
2022/12/20 11:44:20;;;;;;;6.18;3.92;;;12.30;99.90;;;;;;5134382;27;20656;-72
2022/12/20 11:47:01;;;;;;;5.78;3.83;;;12.30;99.90;;;;;;5135574;27;20192;-69
2022/12/20 11:49:57;;;;;;;6.88;4.57;;;12.30;99.90;;;;;;5133195;27;20225;-70
2022/12/20 11:52:35;;;;;;;5.75;4.18;;;12.30;99.90;;;;;;5131134;27;20251;-71
2022/12/20 11:55:19;;;;;;;6.10;4.28;;;12.30;99.90;;;;;;5133122;27;20206;-73
2022/12/20 11:57:54;;;;;;;8.25;4.53;;;12.20;99.90;;;;;;5135587;27;20566;-70
2022/12/20 12:00:23;;;;;;;8.80;5.50;;;12.20;99.90;;;;;;5134469;27;20236;-73
2022/12/20 12:02:55;;;;;;;6.25;4.22;;;12.10;99.90;;;;;;5126610;27;20261;-69
2022/12/20 12:05:28;;;;;;;10.13;5.50;;;12.20;99.90;;;;;;5143740;27;20216;-69
2022/12/20 12:08:00;;;;;;;8.45;4.13;;;12.20;99.90;;;;;;5136268;27;20196;-70
2022/12/20 12:10:34;;;;;;;6.55;4.50;;;12.10;99.90;;;;;;5134943;27;20302;-71
2022/12/20 12:13:06;;;;;;;10.68;5.78;;;12.10;99.90;;;;;;5135309;27;20264;-69
2022/12/20 12:15:40;;;;;;;8.10;5.35;;;12.10;99.90;;;;;;5135186;27;20223;-72
2022/12/20 12:18:14;;;;;;;6.13;4.85;;;12.00;99.90;;;;;;5134940;27;20214;-73
2022/12/20 12:20:48;;;;;;;6.43;5.07;;;12.10;99.90;;;;;;5134526;27;20632;-70
2022/12/20 12:23:24;;;;;;;11.57;5.30;;;12.20;99.90;;;;;;5137619;27;20219;-72
2022/12/20 12:25:52;;;;;;;6.00;5.15;;;12.30;99.90;;;;;;5134355;27;20200;-71
2022/12/20 12:28:21;;;;;;;5.30;4.57;;;12.40;99.90;;;;;;5135922;27;20584;-70
2022/12/20 12:30:53;;;;;;;5.70;5.05;;;12.40;99.90;;;;;;5134019;27;20243;-72
2022/12/20 12:33:25;;;;;;;5.00;4.55;;;12.50;99.90;;;;;;5134409;27;20189;-69
2022/12/20 12:36:28;;;;;;;4.90;4.50;;;12.50;99.90;;;;;;5134249;27;20208;-69
2022/12/20 12:39:28;;;;;;;11.13;5.25;;;12.60;99.90;;;;;;5135019;27;20298;-72
2022/12/20 12:42:09;;;;;;;5.13;4.60;;;12.50;99.90;;;;;;5134562;27;20205;-71
2022/12/20 12:44:47;;;;;;;14.13;5.40;;;12.40;99.90;;;;;;5132255;27;20666;-72
2022/12/20 12:47:27;;;;;;;7.32;6.20;;;12.30;99.90;;;;;;5135681;27;20216;-71
2022/12/20 12:49:56;;;;;;;6.25;5.22;;;12.10;99.90;;;;;;5127361;27;20271;-73
2022/12/20 12:52:49;;;;;;;7.85;5.68;;;12.00;99.90;;;;;;5135131;27;20216;-72
2022/12/20 12:55:47;;;;;;;8.30;5.93;;;12.00;99.90;;;;;;5135107;27;20196;-69
2022/12/20 12:58:34;;;;;;;6.20;5.45;;;11.90;99.90;;;;;;5071154;28;20197;-73
2022/12/20 13:01:04;;;;;;;6.30;4.57;;;12.00;99.90;;;;;;5128112;27;20228;-72
2022/12/20 13:04:05;;;;;;;6.28;4.85;;;12.00;99.90;;;;;;5130298;27;20204;-71
2022/12/20 13:06:57;;;;;;;7.97;4.88;;;12.10;99.90;;;;;;5130309;27;20523;-71
2022/12/20 13:09:45;;;;;;;5.40;4.90;;;12.10;99.90;;;;;;5130542;27;20279;-73
2022/12/20 13:12:55;;;;;;;7.57;5.88;;;12.00;99.90;;;;;;5132765;27;20568;-72
2022/12/20 13:16:06;;;;;;;5.40;4.43;;;12.00;99.90;;;;;;5134287;27;20260;-74
2022/12/20 13:18:33;;;;;;;7.53;5.00;;;11.90;99.90;;;;;;5119245;27;20200;-73
2022/12/20 13:21:37;;;;;;;7.53;5.38;;;11.80;99.90;;;;;;5133787;27;20223;-69
2022/12/20 13:24:45;;;;;;;6.00;4.75;;;11.70;99.90;;;;;;5134547;27;20283;-70